Time;durP1;ratioP1;P1;durP2;ratioP2;P2;SDS_P1;SDS_P2;PMS_P1;PMS_P2;Temp;Humidity;BMP_temperature;BMP_pressure;BME280_temperature;BME280_humidity;BME280_pressure;Samples;Min_cycle;Max_cycle;Signal;HPM_P1;HPM_P2
2024/01/05 00:09:15;;;;;;;3.6;2.1;;;;;;;2.65;80.88;97731.666666667;;;;
2024/01/05 00:20:16;;;;;;;4.8;2;;;;;;;2.63;80.63;97736.666666667;;;;
2024/01/05 00:30:15;;;;;;;4.8;2;;;;;;;2.79;80.79;97748.333333333;;;;
2024/01/05 00:41:15;;;;;;;4.8;2;;;;;;;2.73;79.86;97766.666666667;;;;
2024/01/05 00:51:15;;;;;;;3;1.7;;;;;;;2.58;80.13;97778.333333333;;;;
2024/01/05 01:02:15;;;;;;;3;1.7;;;;;;;2.58;80.24;97768.333333333;;;;
2024/01/05 01:13:15;;;;;;;3;1.7;;;;;;;2.51;80.19;97783.333333333;;;;
2024/01/05 01:24:15;;;;;;;2.7;1.6;;;;;;;2.48;80.3;97776.666666667;;;;
2024/01/05 01:34:15;;;;;;;2.7;1.6;;;;;;;2.52;80.45;97786.666666667;;;;
2024/01/05 01:45:15;;;;;;;3;1.6;;;;;;;2.49;80.25;97806.666666667;;;;
2024/01/05 01:55:16;;;;;;;3;1.6;;;;;;;2.43;80.29;97821.666666667;;;;
2024/01/05 02:06:15;;;;;;;3;1.6;;;;;;;2.46;80.45;97845;;;;
2024/01/05 02:16:15;;;;;;;5.9;3;;;;;;;2.47;80.68;97860;;;;
2024/01/05 02:26:16;;;;;;;5.9;3;;;;;;;2.45;80.25;97853.333333333;;;;
2024/01/05 02:37:15;;;;;;;5.9;3;;;;;;;2.47;80.3;97848.333333333;;;;
2024/01/05 02:47:16;;;;;;;4.3;2.4;;;;;;;2.56;80.39;97856.666666667;;;;
2024/01/05 02:58:16;;;;;;;4.3;2.4;;;;;;;2.47;80.27;97851.666666667;;;;
2024/01/05 03:09:15;;;;;;;4.3;2.4;;;;;;;2.43;80.39;97878.333333333;;;;
2024/01/05 03:19:16;;;;;;;4;2.4;;;;;;;2.44;80.76;97886.666666667;;;;
2024/01/05 03:30:16;;;;;;;4;2.4;;;;;;;2.49;81;97886.666666667;;;;
2024/01/05 03:41:16;;;;;;;4;2.4;;;;;;;2.48;81.02;97898.333333333;;;;
2024/01/05 03:51:16;;;;;;;4.9;2;;;;;;;2.4;81.11;97898.333333333;;;;
2024/01/05 04:02:16;;;;;;;4.9;2;;;;;;;2.47;81.96;97900;;;;
2024/01/05 04:12:17;;;;;;;4.9;2;;;;;;;2.39;83.03;97900;;;;
2024/01/05 04:22:16;;;;;;;5.5;2.1;;;;;;;2.49;82.97;97893.333333333;;;;
2024/01/05 04:32:16;;;;;;;5.5;2.1;;;;;;;2.36;83.75;97893.333333333;;;;
2024/01/05 04:43:16;;;;;;;5.5;2.1;;;;;;;2.33;84.12;97901.666666667;;;;
2024/01/05 04:53:16;;;;;;;5.1;2.4;;;;;;;2.34;84.31;97905;;;;
2024/01/05 05:04:17;;;;;;;5.1;2.4;;;;;;;2.32;84;97916.666666667;;;;
2024/01/05 05:14:16;;;;;;;5.1;2.4;;;;;;;2.34;83.73;97928.333333333;;;;
2024/01/05 05:24:16;;;;;;;5.7;3.2;;;;;;;2.27;83.61;97943.333333333;;;;
2024/01/05 05:35:16;;;;;;;5.7;3.2;;;;;;;2.41;83.34;97951.666666667;;;;
2024/01/05 05:46:16;;;;;;;5.6;3.2;;;;;;;2.33;82.32;97981.666666667;;;;
2024/01/05 05:57:16;;;;;;;5.6;3.2;;;;;;;2.34;82.93;97995;;;;
2024/01/05 06:07:16;;;;;;;5.6;3.2;;;;;;;2.36;83.52;98013.333333333;;;;
2024/01/05 06:18:16;;;;;;;6.1;3.2;;;;;;;2.18;84.8;98023.333333333;;;;
2024/01/05 06:28:16;;;;;;;6.1;3.2;;;;;;;2.26;84.46;98011.666666667;;;;
2024/01/05 06:39:16;;;;;;;6.1;3.2;;;;;;;2.28;84.83;98000;;;;
2024/01/05 06:49:16;;;;;;;7.7;4.3;;;;;;;2.33;85.33;97990;;;;
2024/01/05 06:59:16;;;;;;;7.7;4.3;;;;;;;2.42;85.04;97990;;;;
2024/01/05 07:10:16;;;;;;;7.7;4.3;;;;;;;2.28;85.12;97980;;;;
2024/01/05 07:20:16;;;;;;;6.4;3.9;;;;;;;2.3;85.44;97970;;;;
2024/01/05 07:30:16;;;;;;;6.4;3.9;;;;;;;2.29;85.43;97980;;;;
2024/01/05 07:41:16;;;;;;;6.4;3.9;;;;;;;2.5;85.81;97985;;;;
2024/01/05 07:51:16;;;;;;;8.6;4;;;;;;;2.52;85.33;97971.666666667;;;;
2024/01/05 08:02:16;;;;;;;8.6;4;;;;;;;2.69;85.33;97970;;;;
2024/01/05 08:12:16;;;;;;;8.6;4;;;;;;;2.75;84.74;97976.666666667;;;;
2024/01/05 08:22:16;;;;;;;8.7;4.5;;;;;;;2.88;84.22;97966.666666667;;;;
2024/01/05 08:33:16;;;;;;;8.7;4.5;;;;;;;2.71;84.87;97970;;;;
2024/01/05 08:43:17;;;;;;;8.7;4.5;;;;;;;3.04;83.56;97988.333333333;;;;
2024/01/05 08:53:16;;;;;;;9.3;4.1;;;;;;;3.27;83.01;97993.333333333;;;;
2024/01/05 09:04:16;;;;;;;9.3;4.1;;;;;;;3.28;84.49;97993.333333333;;;;
2024/01/05 09:14:16;;;;;;;11.3;6.3;;;;;;;3.13;82.05;97995;;;;
2024/01/05 09:24:16;;;;;;;11.3;6.3;;;;;;;3.01;82.54;97985;;;;
2024/01/05 09:34:17;;;;;;;11.3;6.3;;;;;;;2.82;82.99;97985;;;;
2024/01/05 09:45:16;;;;;;;10.8;5.1;;;;;;;3.06;83.14;97971.666666667;;;;
2024/01/05 09:56:16;;;;;;;10.8;5.1;;;;;;;3.2;82.84;97973.333333333;;;;
2024/01/05 10:07:16;;;;;;;10.8;5.1;;;;;;;3.48;81.92;97990;;;;
2024/01/05 10:18:16;;;;;;;9.6;5.5;;;;;;;3.31;80.84;97988.333333333;;;;
2024/01/05 10:29:16;;;;;;;9.6;5.5;;;;;;;3.28;81.15;97986.666666667;;;;
2024/01/05 10:39:18;;;;;;;9.6;5.5;;;;;;;3.55;81.25;97983.333333333;;;;
2024/01/05 10:50:16;;;;;;;11.5;6.1;;;;;;;3.88;80.85;97980;;;;
2024/01/05 11:01:16;;;;;;;11.5;6.1;;;;;;;3.85;82.04;97953.333333333;;;;
2024/01/05 11:11:15;;;;;;;11.5;6.1;;;;;;;3.86;81.91;97945;;;;
2024/01/05 11:12:17;;;;;;;11.5;6.1;;;;;;;3.94;81.74;97945;;;;
2024/01/05 11:22:16;;;;;;;10.9;5.5;;;;;;;4.35;80.88;97930;;;;
2024/01/05 11:32:16;;;;;;;10.9;5.5;;;;;;;4.59;80.43;97920;;;;
2024/01/05 11:42:16;;;;;;;10.9;5.5;;;;;;;4.79;79.74;97910;;;;
2024/01/05 11:53:17;;;;;;;9.4;5.8;;;;;;;5.41;78.37;97918.333333333;;;;
2024/01/05 12:04:17;;;;;;;9.4;5.8;;;;;;;5.51;77.96;97915;;;;
2024/01/05 12:14:17;;;;;;;10.5;6.7;;;;;;;5.47;77.34;97905;;;;
2024/01/05 12:25:16;;;;;;;10.5;6.7;;;;;;;5.38;77.43;97891.666666667;;;;
2024/01/05 12:35:16;;;;;;;10.5;6.7;;;;;;;5.21;77.4;97886.666666667;;;;
2024/01/05 12:46:17;;;;;;;14.6;6.8;;;;;;;4.75;79.11;97891.666666667;;;;
2024/01/05 12:57:17;;;;;;;14.6;6.8;;;;;;;4.96;78.48;97890;;;;
2024/01/05 13:07:17;;;;;;;14.6;6.8;;;;;;;4.84;79.25;97881.666666667;;;;
2024/01/05 13:18:17;;;;;;;13;7.2;;;;;;;4.42;80.27;97866.666666667;;;;
2024/01/05 13:28:17;;;;;;;13;7.2;;;;;;;4.21;81.16;97856.666666667;;;;
2024/01/05 13:38:18;;;;;;;13;7.2;;;;;;;4.16;81.35;97848.333333333;;;;
2024/01/05 13:49:17;;;;;;;11.6;6.8;;;;;;;4.12;81.28;97848.333333333;;;;
2024/01/05 14:00:16;;;;;;;11.6;6.8;;;;;;;3.74;83.15;97840;;;;
2024/01/05 14:10:17;;;;;;;11.6;6.8;;;;;;;3.47;84.07;97825;;;;
2024/01/05 14:21:17;;;;;;;12.8;6.6;;;;;;;3.53;83.78;97828.333333333;;;;
2024/01/05 14:32:17;;;;;;;12.8;6.6;;;;;;;3.32;83.9;97823.333333333;;;;
2024/01/05 14:42:17;;;;;;;12.8;6.6;;;;;;;2.97;85.53;97813.333333333;;;;
2024/01/05 14:52:17;;;;;;;15.5;9.5;;;;;;;2.78;85.65;97826.666666667;;;;
2024/01/05 15:03:17;;;;;;;15.5;9.5;;;;;;;2.46;86.51;97826.666666667;;;;
2024/01/05 15:13:17;;;;;;;15.5;9.5;;;;;;;2.01;88.91;97811.666666667;;;;
2024/01/05 15:24:17;;;;;;;24.7;13.1;;;;;;;1.98;89.82;97816.666666667;;;;
2024/01/05 15:35:17;;;;;;;24.7;13.1;;;;;;;2.17;89.67;97803.333333333;;;;
2024/01/05 15:45:17;;;;;;;32.4;16.7;;;;;;;2.29;89.78;97800;;;;
2024/01/05 15:56:17;;;;;;;32.4;16.7;;;;;;;2.35;89.62;97801.666666667;;;;
2024/01/05 16:06:18;;;;;;;32.4;16.7;;;;;;;2.28;89.55;97806.666666667;;;;
2024/01/05 16:17:17;;;;;;;25.7;13.4;;;;;;;2.25;89.62;97815;;;;
2024/01/05 16:27:17;;;;;;;25.7;13.4;;;;;;;2.36;89.36;97811.666666667;;;;
2024/01/05 16:37:17;;;;;;;25.7;13.4;;;;;;;2.1;89.39;97808.333333333;;;;
2024/01/05 16:48:18;;;;;;;25.4;14.6;;;;;;;2;89.33;97798.333333333;;;;
2024/01/05 16:58:17;;;;;;;25.4;14.6;;;;;;;2.05;89.24;97805;;;;
2024/01/05 17:09:17;;;;;;;25.4;14.6;;;;;;;2.03;88.88;97798.333333333;;;;
2024/01/05 17:20:17;;;;;;;26.7;14.3;;;;;;;1.89;89.28;97795;;;;
2024/01/05 17:30:17;;;;;;;26.7;14.3;;;;;;;2.04;88.84;97793.333333333;;;;
2024/01/05 17:41:17;;;;;;;26.7;14.3;;;;;;;1.78;88.72;97795;;;;
2024/01/05 17:51:17;;;;;;;25.3;16;;;;;;;1.56;88.84;97811.666666667;;;;
2024/01/05 18:02:17;;;;;;;25.3;16;;;;;;;1.58;88.86;97803.333333333;;;;
2024/01/05 18:13:17;;;;;;;31.6;16.7;;;;;;;1.8;88.58;97815;;;;
2024/01/05 18:24:17;;;;;;;31.6;16.7;;;;;;;1.83;87.84;97818.333333333;;;;
2024/01/05 18:35:17;;;;;;;31.6;16.7;;;;;;;1.58;88.27;97811.666666667;;;;
2024/01/05 18:46:17;;;;;;;27.2;14.4;;;;;;;1.66;88.16;97810;;;;
2024/01/05 18:56:17;;;;;;;27.2;14.4;;;;;;;1.21;89.52;97808.333333333;;;;
2024/01/05 19:06:17;;;;;;;27.2;14.4;;;;;;;1.49;89.14;97801.666666667;;;;
2024/01/05 19:17:19;;;;;;;34;15.4;;;;;;;1.41;88.85;97801.666666667;;;;
2024/01/05 19:27:17;;;;;;;34;15.4;;;;;;;1.32;88.94;97783.333333333;;;;
2024/01/05 19:37:17;;;;;;;34;15.4;;;;;;;1.16;89.31;97791.666666667;;;;
2024/01/05 19:48:17;;;;;;;33.4;17.8;;;;;;;1.18;89.18;97791.666666667;;;;
2024/01/05 19:59:19;;;;;;;33.4;17.8;;;;;;;1.45;88.68;97795;;;;
2024/01/05 20:09:17;;;;;;;33.4;17.8;;;;;;;1.56;88.82;97800;;;;
2024/01/05 20:20:18;;;;;;;28.2;16.5;;;;;;;1.37;88.54;97791.666666667;;;;
2024/01/05 20:30:17;;;;;;;28.2;16.5;;;;;;;1.32;88.81;97800;;;;
2024/01/05 20:41:17;;;;;;;28.2;16.5;;;;;;;1.49;89.11;97808.333333333;;;;
2024/01/05 20:51:17;;;;;;;30.5;15.3;;;;;;;1.58;88.19;97791.666666667;;;;
2024/01/05 21:02:17;;;;;;;30.5;15.3;;;;;;;1.41;88.18;97773.333333333;;;;
2024/01/05 21:13:17;;;;;;;28.9;15.3;;;;;;;1.38;88.17;97790;;;;
2024/01/05 21:23:17;;;;;;;28.9;15.3;;;;;;;1.12;89.31;97786.666666667;;;;
2024/01/05 21:34:17;;;;;;;28.9;15.3;;;;;;;1.14;88.66;97766.666666667;;;;
2024/01/05 21:44:18;;;;;;;29.1;16.8;;;;;;;1.29;88.78;97750;;;;
2024/01/05 21:55:17;;;;;;;29.1;16.8;;;;;;;1.15;89.02;97758.333333333;;;;
2024/01/05 22:05:18;;;;;;;29.1;16.8;;;;;;;1.2;88.95;97760;;;;
2024/01/05 22:15:17;;;;;;;30.4;18.2;;;;;;;1.23;89.37;97753.333333333;;;;
2024/01/05 22:26:17;;;;;;;30.4;18.2;;;;;;;1.07;89.12;97745;;;;
2024/01/05 22:37:17;;;;;;;30.4;18.2;;;;;;;1.16;88.32;97746.666666667;;;;
2024/01/05 22:48:17;;;;;;;25.7;14.3;;;;;;;0.96;88.77;97735;;;;
2024/01/05 22:58:17;;;;;;;25.7;14.3;;;;;;;1.1;89;97721.666666667;;;;
2024/01/05 23:08:17;;;;;;;25.7;14.3;;;;;;;0.96;89.04;97735;;;;
2024/01/05 23:19:17;;;;;;;31.1;16.9;;;;;;;0.86;89.17;97746.666666667;;;;
2024/01/05 23:29:17;;;;;;;31.1;16.9;;;;;;;1.04;89.06;97733.333333333;;;;
2024/01/05 23:40:17;;;;;;;31.1;16.9;;;;;;;1;88.86;97730;;;;
2024/01/05 23:50:17;;;;;;;28.3;16.1;;;;;;;0.93;89.28;97735;;;;
